Eastport Municipal Airport (EPM)
Eastport, ME
Field Elevation: 45
Lat: 44°54.60N  Long: 67°00.76W
CTAF/Unicom Freq: 122.8000
   
     For Weather-by-Phone, call 207-853-0682
Weather Advisories
2021-10-24   15:37 Z
Altimeter 29.93" Hg
Wind 290° @ 10 KT
Gusts 17 KT
Visibility 10 SM
Temperature 8° C (46° F)
Dewpoint 0° C (32° F)
Relative Humidity 58%
Density Altitude --
Condensation Altitude 3,900 feet
Wind Chill: 5° C (41° F)
Wind and Runways
Indicated Runway = 32
Headwind = 9 kt
Crosswind = 5 kt
History
 
 
 
More Info
NOAA Forecast
 
 
About Us
Belfort Instrument
 
 
FAA Disclaimer: The data displayed is for advisory purposes only and is not to be used for flight planning or operations. For official data, please call 207-853-0682 to hear the current automated AWOS voice message.
  METAR EPM 241537Z AUTO 29010G17KT 10 SM 08/00 A2993